Terminal Aerodrome Forecast
Issued by NWS Blacksburg, VA

Home | Current Version | Previous Version | Text Only | Print | Product List | Glossary On
Versions: 1 2 3 4 5 6 7 8 9 10 11 12 13 14 15 16 17 18
000
FTUS41 KRNK 191548 AAB
TAFBLF
TAF AMD
KBLF 191548Z 1916/2012 30008KT 1SM BR OVC002
      TEMPO 1916/1917 3SM BR
     FM191700 30010G18KT 4SM BR OVC015
     FM191900 29010G18KT P6SM BKN030
     FM192100 30009KT P6SM SCT030
     FM192300 29005KT P6SM FEW040
     FM200400 28004KT P6SM SCT008 BKN015=

USA.gov is the U.S. government's official web portal to all federal, state and local government web resources and services.